Terminal Aerodrome Forecast
Issued by NWS St Louis, MO

Home | Current Version | Previous Version | Text Only | Print | Product List | Glossary On
Versions: 1 2 3 4 5 6 7 8 9 10 11 12 13 14 15 16 17 18
000
FTUS43 KLSX 010520
TAFCOU
TAF
KCOU 010520Z 0106/0206 23005KT 6SM -SHRA OVC100
     FM011000 16006KT 5SM SHRA VCTS OVC040CB
     FM011800 17009KT P6SM OVC060
     FM020100 11004KT 6SM -SHRA OVC040=

USA.gov is the U.S. government's official web portal to all federal, state and local government web resources and services.